createdAt,value
2018-05-07T00:01:03.743Z,52.36
2018-05-07T00:03:31.602Z,52.05
2018-05-07T00:05:59.185Z,52.48
2018-05-07T00:08:26.602Z,52.54
2018-05-07T00:10:54.109Z,52.54
2018-05-07T00:13:21.601Z,52.62
2018-05-07T00:15:49.553Z,53.07
2018-05-07T00:18:17.030Z,52.77
2018-05-07T00:20:44.674Z,52.46
2018-05-07T00:23:12.075Z,52.95
2018-05-07T00:25:39.565Z,53.28
2018-05-07T00:28:07.444Z,52.95
2018-05-07T00:30:34.928Z,54.04
2018-05-07T00:33:02.405Z,54.42
2018-05-07T00:35:29.905Z,55.44
2018-05-07T00:37:57.400Z,55.95
2018-05-07T00:40:25.274Z,55.80
2018-05-07T00:42:53.488Z,56.54
2018-05-07T00:45:20.968Z,57.11
2018-05-07T00:47:48.485Z,57.54
2018-05-07T00:50:15.968Z,58.11
2018-05-07T00:52:43.765Z,58.35
2018-05-07T00:55:22.019Z,57.86
2018-05-07T00:57:49.588Z,58.10
2018-05-07T01:00:18.017Z,58.76
2018-05-07T01:02:45.499Z,59.33
2018-05-07T01:05:12.997Z,59.37
2018-05-07T01:07:40.477Z,59.67
2018-05-07T01:10:08.225Z,60.15
2018-05-07T01:12:35.712Z,60.59
2018-05-07T01:15:03.306Z,61.08
2018-05-07T01:17:30.817Z,61.22
2018-05-07T01:19:58.312Z,62.35
2018-05-07T01:22:25.820Z,61.88
2018-05-07T01:24:53.304Z,61.95
2018-05-07T01:27:20.785Z,61.63
2018-05-07T01:29:48.304Z,61.13
2018-05-07T01:32:15.781Z,62.03
2018-05-07T01:34:43.500Z,62.04
2018-05-07T01:37:10.983Z,62.87
2018-05-07T01:39:38.492Z,61.66
2018-05-07T01:42:06.037Z,62.60
2018-05-07T01:44:33.512Z,61.54
2018-05-07T01:47:01.280Z,62.08
2018-05-07T01:49:28.765Z,61.47
2018-05-07T01:51:56.256Z,61.45
2018-05-07T01:54:23.769Z,61.96
2018-05-07T01:56:51.284Z,61.25
2018-05-07T01:59:19.264Z,61.92
2018-05-07T02:01:46.768Z,62.23
2018-05-07T02:04:14.253Z,63.01
2018-05-07T02:06:41.768Z,63.62
2018-05-07T02:09:09.247Z,64.41
2018-05-07T02:11:37.006Z,64.99
2018-05-07T02:14:04.504Z,65.55
2018-05-07T02:16:31.983Z,64.96
2018-05-07T02:18:59.505Z,66.03
2018-05-07T02:21:26.993Z,65.83
2018-05-07T02:23:54.524Z,65.03
2018-05-07T02:26:22.000Z,65.85
2018-05-07T02:28:49.492Z,64.63
2018-05-07T02:31:17.014Z,64.66
2018-05-07T02:33:44.504Z,66.45
2018-05-07T02:36:12.524Z,65.45
2018-05-07T02:38:40.005Z,66.79
2018-05-07T02:41:07.488Z,66.78
2018-05-07T02:43:34.993Z,66.62
2018-05-07T02:46:02.468Z,67.88
2018-05-07T02:48:30.085Z,68.11
2018-05-07T02:50:57.589Z,68.77
2018-05-07T02:53:25.213Z,69.01
2018-05-07T02:55:52.731Z,68.51
2018-05-07T02:58:20.208Z,68.93
2018-05-07T03:00:48.137Z,68.08
2018-05-07T03:03:15.620Z,69.95
2018-05-07T03:05:43.111Z,70.13
2018-05-07T03:08:10.637Z,68.42
2018-05-07T03:10:38.115Z,67.65
2018-05-07T03:13:05.788Z,68.27
2018-05-07T03:15:33.269Z,68.04
2018-05-07T03:18:00.744Z,68.49
2018-05-07T03:20:28.283Z,68.13
2018-05-07T03:22:55.765Z,68.33
2018-05-07T03:25:23.309Z,69.35
2018-05-07T03:27:50.845Z,69.90
2018-05-07T03:30:18.321Z,70.17
2018-05-07T03:32:45.845Z,70.94
2018-05-07T03:35:13.357Z,70.81
2018-05-07T03:37:41.028Z,70.98
2018-05-07T03:40:08.521Z,70.62
2018-05-07T03:42:36.010Z,69.34
2018-05-07T03:45:03.520Z,70.85
2018-05-07T03:47:31.109Z,70.66
2018-05-07T03:49:58.617Z,71.50
2018-05-07T03:52:26.108Z,71.52
2018-05-07T03:54:53.609Z,71.10
2018-05-07T03:57:21.132Z,70.63
2018-05-07T03:59:48.732Z,70.26
2018-05-07T04:02:16.341Z,71.10
2018-05-07T04:04:43.828Z,71.01
2018-05-07T04:07:11.308Z,71.72
2018-05-07T04:09:38.809Z,72.86
2018-05-07T04:12:06.296Z,70.64
2018-05-07T04:14:34.079Z,72.36
2018-05-07T04:17:13.372Z,72.16
2018-05-07T04:19:52.967Z,71.10
2018-05-07T04:25:20.947Z,71.62
2018-05-07T04:27:48.428Z,71.32
2018-05-07T04:30:15.913Z,72.11
2018-05-07T04:32:43.428Z,72.21
2018-05-07T04:35:10.917Z,71.55
2018-05-07T04:37:38.640Z,71.76
2018-05-07T04:40:06.133Z,71.53
2018-05-07T04:42:33.612Z,71.51
2018-05-07T04:45:01.109Z,70.45
2018-05-07T04:47:28.585Z,67.05
2018-05-07T04:49:56.400Z,63.97
2018-05-07T04:52:23.917Z,61.92
2018-05-07T04:54:51.404Z,59.66
2018-05-07T04:57:18.912Z,59.23
2018-05-07T04:59:46.406Z,57.72
2018-05-07T05:02:14.372Z,58.25
2018-05-07T05:04:42.011Z,57.00
2018-05-07T05:07:09.568Z,54.69
2018-05-07T05:09:37.016Z,55.25
2018-05-07T05:12:04.504Z,56.41
2018-05-07T05:14:32.223Z,54.65
2018-05-07T05:16:59.713Z,54.19
2018-05-07T05:19:27.204Z,53.44
2018-05-07T05:21:54.735Z,53.43
2018-05-07T05:24:22.218Z,52.66
2018-05-07T05:26:49.987Z,53.29
2018-05-07T05:29:17.464Z,51.81
2018-05-07T05:31:44.976Z,51.88
2018-05-07T05:34:12.503Z,52.06
2018-05-07T05:36:40.017Z,51.82
2018-05-07T05:39:07.552Z,51.38
2018-05-07T05:41:35.030Z,50.92
2018-05-07T05:44:02.513Z,49.35
2018-05-07T05:46:30.017Z,49.17
2018-05-07T05:48:57.644Z,51.17
2018-05-07T05:51:25.168Z,50.37
2018-05-07T05:53:52.652Z,49.99
2018-05-07T05:56:20.312Z,47.03
2018-05-07T05:58:47.736Z,45.49
2018-05-07T06:01:15.223Z,46.57
2018-05-07T06:03:42.781Z,45.56
2018-05-07T06:06:10.245Z,45.20
2018-05-07T06:08:37.741Z,44.75
2018-05-07T06:11:05.349Z,45.00
2018-05-07T06:13:32.834Z,45.66
2018-05-07T06:16:00.352Z,44.97
2018-05-07T06:18:27.874Z,46.89
2018-05-07T06:20:55.365Z,47.71
2018-05-07T06:23:22.896Z,47.12
2018-05-07T06:25:50.381Z,47.93
2018-05-07T06:28:17.901Z,47.87
2018-05-07T06:30:45.396Z,49.19
2018-05-07T06:33:12.909Z,47.97
2018-05-07T06:35:40.458Z,48.88
2018-05-07T06:38:07.936Z,48.35
2018-05-07T06:40:35.612Z,48.12
2018-05-07T06:43:03.089Z,48.67
2018-05-07T06:45:30.570Z,48.75
2018-05-07T06:47:58.093Z,49.63
2018-05-07T06:50:25.570Z,49.40
2018-05-07T06:52:53.173Z,49.63
2018-05-07T06:55:20.649Z,50.28
2018-05-07T06:57:48.125Z,49.54
2018-05-07T07:00:15.629Z,49.41
2018-05-07T07:02:43.163Z,49.47
2018-05-07T07:05:11.125Z,49.60
2018-05-07T07:07:38.618Z,49.86
2018-05-07T07:10:06.108Z,50.40
2018-05-07T07:12:33.613Z,48.81
2018-05-07T07:15:01.102Z,48.83
2018-05-07T07:17:28.641Z,48.79
2018-05-07T07:19:56.134Z,49.21
2018-05-07T07:22:23.640Z,48.55
2018-05-07T07:24:51.152Z,48.65
2018-05-07T07:27:18.645Z,48.54
2018-05-07T07:29:46.329Z,47.77
2018-05-07T07:32:13.832Z,47.66
2018-05-07T07:34:41.312Z,47.85
2018-05-07T07:37:08.841Z,48.06
2018-05-07T07:39:36.320Z,48.28
2018-05-07T07:42:04.189Z,47.05
2018-05-07T07:44:31.673Z,47.09
2018-05-07T07:46:59.160Z,47.04
2018-05-07T07:49:26.687Z,47.37
2018-05-07T07:51:54.201Z,47.25
2018-05-07T07:54:21.882Z,45.96
2018-05-07T07:56:49.374Z,46.98
2018-05-07T07:59:16.849Z,46.03
2018-05-07T08:01:44.354Z,46.50
2018-05-07T08:04:11.872Z,45.73
2018-05-07T08:06:39.470Z,45.84
2018-05-07T08:09:06.953Z,45.55
2018-05-07T08:11:34.428Z,45.18
2018-05-07T08:14:01.936Z,45.17
2018-05-07T08:16:29.418Z,44.95
2018-05-07T08:18:56.960Z,44.72
2018-05-07T08:21:24.441Z,45.19
2018-05-07T08:23:51.929Z,45.63
2018-05-07T08:26:19.449Z,45.08
2018-05-07T08:28:46.941Z,44.70
2018-05-07T08:31:14.454Z,44.16
2018-05-07T08:33:41.959Z,45.18
2018-05-07T08:36:09.445Z,45.41
2018-05-07T08:38:36.972Z,44.43
2018-05-07T08:41:04.454Z,43.95
2018-05-07T08:43:32.189Z,43.59
2018-05-07T08:45:59.669Z,43.47
2018-05-07T08:48:27.165Z,44.50
2018-05-07T08:50:54.763Z,44.62
2018-05-07T08:53:22.211Z,43.06
2018-05-07T08:55:50.139Z,42.74
2018-05-07T08:58:17.624Z,43.13
2018-05-07T09:00:45.129Z,42.82
2018-05-07T09:03:12.637Z,41.12
2018-05-07T09:05:40.148Z,43.27
2018-05-07T09:08:07.815Z,43.47
2018-05-07T09:10:35.173Z,42.87
2018-05-07T09:13:02.671Z,41.92
2018-05-07T09:15:30.218Z,41.59
2018-05-07T09:17:57.700Z,41.84
2018-05-07T09:20:25.338Z,43.34
2018-05-07T09:22:52.844Z,43.24
2018-05-07T09:25:20.333Z,43.50
2018-05-07T09:27:47.837Z,42.78
2018-05-07T09:30:15.346Z,42.82
2018-05-07T09:32:43.013Z,43.39
2018-05-07T09:35:10.492Z,42.94
2018-05-07T09:37:37.999Z,43.55
2018-05-07T09:40:05.516Z,43.04
2018-05-07T09:42:33.000Z,43.39
2018-05-07T09:45:00.581Z,42.75
2018-05-07T09:47:28.070Z,43.52
2018-05-07T09:49:55.552Z,42.13
2018-05-07T09:52:23.072Z,42.41
2018-05-07T09:54:50.550Z,41.92
2018-05-07T09:57:18.401Z,39.77
2018-05-07T09:59:45.885Z,40.67
2018-05-07T10:02:13.371Z,39.94
2018-05-07T10:04:40.876Z,41.00
2018-05-07T10:07:08.365Z,41.84
2018-05-07T10:09:36.464Z,41.56
2018-05-07T10:12:03.945Z,41.10
2018-05-07T10:14:31.453Z,40.93
2018-05-07T10:16:59.002Z,40.91
2018-05-07T10:19:26.476Z,39.96
2018-05-07T10:21:54.140Z,39.14
2018-05-07T10:24:21.639Z,40.62
2018-05-07T10:26:49.130Z,39.86
2018-05-07T10:29:16.641Z,39.51
2018-05-07T10:31:44.146Z,40.27
2018-05-07T10:34:11.906Z,38.56
2018-05-07T10:36:39.384Z,38.50
2018-05-07T10:39:06.881Z,39.04
2018-05-07T10:41:34.381Z,39.13
2018-05-07T10:44:01.869Z,38.48
2018-05-07T10:46:29.651Z,38.38
2018-05-07T10:48:57.129Z,37.05
2018-05-07T10:51:24.617Z,37.14
2018-05-07T10:53:52.137Z,36.37
2018-05-07T10:56:19.616Z,36.53
2018-05-07T10:58:47.395Z,36.04
2018-05-07T11:01:14.873Z,36.30
2018-05-07T11:03:42.352Z,37.69
2018-05-07T11:06:09.893Z,37.65
2018-05-07T11:08:37.385Z,36.75
2018-05-07T11:11:05.098Z,36.12
2018-05-07T11:13:32.619Z,36.05
2018-05-07T11:16:00.113Z,35.58
2018-05-07T11:18:27.637Z,35.27
2018-05-07T11:20:55.117Z,35.34
2018-05-07T11:23:22.805Z,35.92
2018-05-07T11:25:50.297Z,36.04
2018-05-07T11:28:17.925Z,35.62
2018-05-07T11:30:45.433Z,33.48
2018-05-07T11:33:12.928Z,33.85
2018-05-07T11:35:40.675Z,34.07
2018-05-07T11:38:08.157Z,33.82
2018-05-07T11:40:35.753Z,33.98
2018-05-07T11:43:03.257Z,34.04
2018-05-07T11:45:30.747Z,33.89
2018-05-07T11:47:58.280Z,33.14
2018-05-07T11:50:25.785Z,33.09
2018-05-07T11:52:53.272Z,32.94
2018-05-07T11:55:20.792Z,33.28
2018-05-07T11:57:48.289Z,32.13
2018-05-07T12:00:15.805Z,33.65
2018-05-07T12:02:43.348Z,33.21
2018-05-07T12:05:10.797Z,33.26
2018-05-07T12:07:38.320Z,34.13
2018-05-07T12:10:05.796Z,33.31
2018-05-07T12:12:33.336Z,32.61
2018-05-07T12:15:00.825Z,33.62
2018-05-07T12:17:28.309Z,33.17
2018-05-07T12:19:55.841Z,32.16
2018-05-07T12:22:23.324Z,33.04
2018-05-07T12:24:51.096Z,32.05
2018-05-07T12:27:18.589Z,32.05
2018-05-07T12:29:46.083Z,31.91
2018-05-07T12:32:13.589Z,32.04
2018-05-07T12:34:41.065Z,32.26
2018-05-07T12:37:08.581Z,32.63
2018-05-07T12:39:36.087Z,32.89
2018-05-07T12:42:03.707Z,33.22
2018-05-07T12:44:31.233Z,31.82
2018-05-07T12:46:58.709Z,32.01
2018-05-07T12:49:26.237Z,32.11
2018-05-07T12:51:53.722Z,32.56
2018-05-07T12:54:21.260Z,33.82
2018-05-07T12:56:48.765Z,33.87
2018-05-07T12:59:16.248Z,33.90
2018-05-07T13:01:43.990Z,33.49
2018-05-07T13:04:11.488Z,33.20
2018-05-07T13:06:38.973Z,33.41
2018-05-07T13:09:06.485Z,32.27
2018-05-07T13:11:34.045Z,31.82
2018-05-07T13:14:01.737Z,32.00
2018-05-07T13:16:29.223Z,32.22
2018-05-07T13:18:56.717Z,32.72
2018-05-07T13:21:25.169Z,33.44
2018-05-07T13:23:52.649Z,33.40
2018-05-07T13:26:20.201Z,32.61
2018-05-07T13:28:47.685Z,33.44
2018-05-07T13:31:15.252Z,32.95
2018-05-07T13:33:42.897Z,33.01
2018-05-07T13:36:10.386Z,32.91
2018-05-07T13:38:38.049Z,33.62
2018-05-07T13:41:05.525Z,33.94
2018-05-07T13:43:33.006Z,33.74
2018-05-07T13:46:00.516Z,33.94
2018-05-07T13:48:27.997Z,33.55
2018-05-07T13:50:55.697Z,34.23
2018-05-07T13:53:23.196Z,33.50
2018-05-07T13:55:50.716Z,33.88
2018-05-07T13:58:18.232Z,33.48
2018-05-07T14:00:45.731Z,33.01
2018-05-07T14:03:13.402Z,32.24
2018-05-07T14:05:40.893Z,32.51
2018-05-07T14:08:08.380Z,32.08
2018-05-07T14:10:35.892Z,32.11
2018-05-07T14:13:03.400Z,32.28
2018-05-07T14:15:31.009Z,31.63
2018-05-07T14:17:58.497Z,31.49
2018-05-07T14:20:25.981Z,31.54
2018-05-07T14:22:53.509Z,31.57
2018-05-07T14:25:20.986Z,31.55
2018-05-07T14:27:48.772Z,31.87
2018-05-07T14:30:16.277Z,32.42
2018-05-07T14:32:43.785Z,31.95
2018-05-07T14:35:11.304Z,31.49
2018-05-07T14:37:38.801Z,30.79
2018-05-07T14:40:06.350Z,31.79
2018-05-07T14:42:33.836Z,32.00
2018-05-07T14:45:01.345Z,32.68
2018-05-07T14:47:28.845Z,33.15
2018-05-07T14:49:56.365Z,33.26
2018-05-07T14:52:24.081Z,32.28
2018-05-07T14:54:51.582Z,32.89
2018-05-07T14:57:19.077Z,32.95
2018-05-07T14:59:46.585Z,32.11
2018-05-07T15:02:14.081Z,31.82
2018-05-07T15:04:41.659Z,32.35
2018-05-07T15:07:09.149Z,32.59
2018-05-07T15:09:36.669Z,31.71
2018-05-07T15:12:04.192Z,32.26
2018-05-07T15:14:31.681Z,31.24
2018-05-07T15:16:59.185Z,30.61
2018-05-07T15:19:26.668Z,31.86
2018-05-07T15:21:54.202Z,30.82
2018-05-07T15:24:21.696Z,31.82
2018-05-07T15:26:49.190Z,31.66
2018-05-07T15:29:16.764Z,31.72
2018-05-07T15:31:44.233Z,32.23
2018-05-07T15:34:11.998Z,31.37
2018-05-07T15:36:39.488Z,31.06
2018-05-07T15:39:06.989Z,30.92
2018-05-07T15:41:34.525Z,31.08
2018-05-07T15:44:02.090Z,31.47
2018-05-07T15:46:29.587Z,31.12
2018-05-07T15:48:57.122Z,29.93
2018-05-07T15:51:24.678Z,29.43
2018-05-07T15:53:52.205Z,30.19
2018-05-07T15:56:19.632Z,29.75
2018-05-07T15:58:47.396Z,29.46
2018-05-07T16:01:14.884Z,29.78
2018-05-07T16:03:42.372Z,30.22
2018-05-07T16:06:09.892Z,29.62
2018-05-07T16:08:37.411Z,29.79
2018-05-07T16:11:04.933Z,29.18
2018-05-07T16:13:32.436Z,29.42
2018-05-07T16:15:59.937Z,29.70
2018-05-07T16:18:27.453Z,29.37
2018-05-07T16:20:55.081Z,29.78
2018-05-07T16:23:23.165Z,29.70
2018-05-07T16:25:50.521Z,29.86
2018-05-07T16:28:17.983Z,29.95
2018-05-07T16:30:45.551Z,30.19
2018-05-07T16:33:13.041Z,29.96
2018-05-07T16:35:40.772Z,29.45
2018-05-07T16:38:08.267Z,30.18
2018-05-07T16:40:35.749Z,30.90
2018-05-07T16:43:03.258Z,29.85
2018-05-07T16:45:30.815Z,30.08
2018-05-07T16:47:58.325Z,30.69
2018-05-07T16:50:25.829Z,30.15
2018-05-07T16:52:53.313Z,30.62
2018-05-07T16:55:20.833Z,30.39
2018-05-07T16:57:48.322Z,30.63
2018-05-07T17:00:15.800Z,30.78
2018-05-07T17:02:43.308Z,31.27
2018-05-07T17:05:11.725Z,30.41
2018-05-07T17:07:39.229Z,30.92
2018-05-07T17:10:06.745Z,30.76
2018-05-07T17:12:34.230Z,31.28
2018-05-07T17:15:01.712Z,30.76
2018-05-07T17:17:29.230Z,32.03
2018-05-07T17:19:56.725Z,31.63
2018-05-07T17:22:24.440Z,32.24
2018-05-07T17:24:51.964Z,31.83
2018-05-07T17:27:19.470Z,32.10
2018-05-07T17:29:46.945Z,31.56
2018-05-07T17:32:14.632Z,31.95
2018-05-07T17:34:42.145Z,32.47
2018-05-07T17:37:09.641Z,32.82
2018-05-07T17:39:37.340Z,33.18
2018-05-07T17:42:04.817Z,33.50
2018-05-07T17:44:44.372Z,33.48
2018-05-07T17:47:23.632Z,34.07
2018-05-07T17:49:51.285Z,34.25
2018-05-07T17:52:18.761Z,34.66
2018-05-07T17:54:46.323Z,35.17
2018-05-07T17:57:14.377Z,35.07
2018-05-07T17:59:41.881Z,35.18
2018-05-07T18:02:09.380Z,36.19
2018-05-07T18:04:37.042Z,36.70
2018-05-07T18:07:04.534Z,37.50
2018-05-07T18:09:32.019Z,37.66
2018-05-07T18:11:59.638Z,38.12
2018-05-07T18:14:27.125Z,38.41
2018-05-07T18:16:54.604Z,38.11
2018-05-07T18:19:22.353Z,38.71
2018-05-07T18:21:49.853Z,39.49
2018-05-07T18:24:17.404Z,39.65
2018-05-07T18:26:45.257Z,39.87
2018-05-07T18:29:12.930Z,40.15
2018-05-07T18:31:40.505Z,40.69
2018-05-07T18:34:08.034Z,41.18
2018-05-07T18:36:35.541Z,41.80
2018-05-07T18:39:03.028Z,42.01
2018-05-07T18:41:30.746Z,41.61
2018-05-07T18:43:58.236Z,42.36
2018-05-07T18:46:25.749Z,42.58
2018-05-07T18:48:53.429Z,43.46
2018-05-07T18:51:20.913Z,44.11
2018-05-07T18:53:48.417Z,43.80
2018-05-07T18:56:16.146Z,44.22
2018-05-07T18:58:43.665Z,44.31
2018-05-07T19:01:11.178Z,45.26
2018-05-07T19:03:38.733Z,44.85
2018-05-07T19:06:06.227Z,44.95
2018-05-07T19:08:33.715Z,45.48
2018-05-07T19:11:01.250Z,45.39
2018-05-07T19:13:28.739Z,46.20
2018-05-07T19:15:56.225Z,46.17
2018-05-07T19:18:23.777Z,46.49
2018-05-07T19:20:51.294Z,45.94
2018-05-07T19:23:18.780Z,46.62
2018-05-07T19:25:46.320Z,46.12
2018-05-07T19:28:13.826Z,46.93
2018-05-07T19:30:42.117Z,46.83
2018-05-07T19:33:09.685Z,47.83
2018-05-07T19:35:37.201Z,47.35
2018-05-07T19:38:05.073Z,47.54
2018-05-07T19:40:32.563Z,47.49
2018-05-07T19:43:00.177Z,47.94
2018-05-07T19:45:27.904Z,48.32
2018-05-07T19:47:55.458Z,48.61
2018-05-07T19:50:22.927Z,49.14
2018-05-07T19:52:50.462Z,49.89
2018-05-07T19:55:18.023Z,49.56
2018-05-07T19:57:46.689Z,49.31
2018-05-07T20:00:14.966Z,49.25
2018-05-07T20:02:42.461Z,49.71
2018-05-07T20:05:10.048Z,49.42
2018-05-07T20:07:37.541Z,49.78
2018-05-07T20:10:05.069Z,50.59
2018-05-07T20:12:33.274Z,50.75
2018-05-07T20:15:00.772Z,50.94
2018-05-07T20:17:28.253Z,51.51
2018-05-07T20:19:55.953Z,52.49
2018-05-07T20:22:23.648Z,52.87
2018-05-07T20:24:51.140Z,53.59
2018-05-07T20:27:18.761Z,53.83
2018-05-07T20:29:46.265Z,52.89
2018-05-07T20:32:13.749Z,52.93
2018-05-07T20:34:41.614Z,53.24
2018-05-07T20:37:09.115Z,54.17
2018-05-07T20:39:36.605Z,54.13
2018-05-07T20:42:04.331Z,53.86
2018-05-07T20:44:32.078Z,54.67
2018-05-07T20:46:59.570Z,56.11
2018-05-07T20:49:27.095Z,54.97
2018-05-07T20:51:54.577Z,55.28
2018-05-07T20:54:22.064Z,55.35
2018-05-07T20:56:49.733Z,55.96
2018-05-07T20:59:17.251Z,56.11
2018-05-07T21:01:44.746Z,55.95
2018-05-07T21:04:12.661Z,56.17
2018-05-07T21:06:40.141Z,56.09
2018-05-07T21:09:07.625Z,56.10
2018-05-07T21:11:35.190Z,56.22
2018-05-07T21:14:02.676Z,56.35
2018-05-07T21:16:30.153Z,55.38
2018-05-07T21:18:57.876Z,54.55
2018-05-07T21:21:25.361Z,54.40
2018-05-07T21:23:52.837Z,53.62
2018-05-07T21:26:20.603Z,53.47
2018-05-07T21:28:48.092Z,53.18
2018-05-07T21:31:15.592Z,52.97
2018-05-07T21:33:43.339Z,53.04
2018-05-07T21:36:10.821Z,52.91
2018-05-07T21:38:38.296Z,52.88
2018-05-07T21:41:05.956Z,52.88
2018-05-07T21:43:33.470Z,53.21
2018-05-07T21:46:00.993Z,53.39
2018-05-07T21:48:28.517Z,53.68
2018-05-07T21:50:56.009Z,53.46
2018-05-07T21:53:23.507Z,53.30
2018-05-07T21:55:51.025Z,53.44
2018-05-07T21:58:18.503Z,53.30
2018-05-07T22:00:46.017Z,53.24
2018-05-07T22:03:13.542Z,53.46
2018-05-07T22:05:41.025Z,53.32
2018-05-07T22:08:08.570Z,53.37
2018-05-07T22:10:36.382Z,53.17
2018-05-07T22:13:03.857Z,52.96
2018-05-07T22:15:31.340Z,52.58
2018-05-07T22:17:58.861Z,51.91
2018-05-07T22:20:26.347Z,52.11
2018-05-07T22:22:53.824Z,52.28
2018-05-07T22:25:21.325Z,52.33
2018-05-07T22:27:48.805Z,52.56
2018-05-07T22:30:16.460Z,52.36
2018-05-07T22:32:43.940Z,52.77
2018-05-07T22:35:11.449Z,52.71
2018-05-07T22:37:38.988Z,53.13
2018-05-07T22:40:06.508Z,52.96
2018-05-07T22:42:34.309Z,52.60
2018-05-07T22:45:01.809Z,53.28
2018-05-07T22:47:29.321Z,53.32
2018-05-07T22:49:56.832Z,53.50
2018-05-07T22:52:24.379Z,52.06
2018-05-07T22:54:52.168Z,52.50
2018-05-07T22:57:19.653Z,52.73
2018-05-07T22:59:47.138Z,51.95
2018-05-07T23:02:14.645Z,53.34
2018-05-07T23:04:42.126Z,52.96
2018-05-07T23:07:09.825Z,54.67
2018-05-07T23:09:37.309Z,53.94
2018-05-07T23:12:04.823Z,54.91
2018-05-07T23:14:32.357Z,55.38
2018-05-07T23:16:59.832Z,56.66
2018-05-07T23:19:27.616Z,56.95
2018-05-07T23:21:55.101Z,59.04
2018-05-07T23:24:22.577Z,59.01
2018-05-07T23:26:50.096Z,59.49
2018-05-07T23:29:17.576Z,59.39
2018-05-07T23:31:45.105Z,58.70
2018-05-07T23:34:12.601Z,59.40
2018-05-07T23:36:41.885Z,59.61
2018-05-07T23:39:09.393Z,59.90
2018-05-07T23:41:36.889Z,59.79
2018-05-07T23:44:04.661Z,60.63
2018-05-07T23:46:32.182Z,60.74
2018-05-07T23:48:59.662Z,61.09
2018-05-07T23:51:27.356Z,61.56
2018-05-07T23:53:54.869Z,62.18
2018-05-07T23:56:22.397Z,62.06
2018-05-07T23:58:49.904Z,61.43
